Pagrindinis puslapis
METAR-TAF:

METAR-TAF

Oro uostai :

Şırnak, Turkija

platuma: 37-21-50N, ilguma: 42-03-36E, Aukštis: 621 m

Dabartinis oras

Ataskaita buvo paskelbta 10 valandos ir 27 minutes, ne 13:50 UTC
Vėjas 11 kt iš Šiaurės Vakarų
Temperatūra 32°C
Drėgmė 23%
Slėgis 1012 hPa
Matomumas 10 km arba daugiau
nėra debesų žemiau 1500 m ir nėra kamuolinių lietaus debesų

METAR: LTCV 271350Z 31011KT CAVOK 32/08 Q1012

Laikas: 03:17 (00:17 UTC)

Prognozė

Ataskaita buvo paskelbta 1 valandą ir 37 minutes, ne 22:40 UTC
Prognozė galioja nuo 28 metu 00 UTC su 28 metu 24 UTC
Vėjas 7 kt iš Vakarų/Šiaurės Vakarų
Matomumas 10 km arba daugiau
nėra debesų žemiau 1500 m ir nėra kamuolinių lietaus debesų

TAF: LTCV 272240Z 2800/2824 30007KT CAVOK

Orai ataskaitas ir orų prognozės (METAR, TAF).

turimą stotys yra geltonos ir raudonos taškus žemėlapyje.

Perkelti pele per norėdami pamatyti stoties vardą.

Tada spustelėkite, norėdami matyti oro stebėjimo ir prognozės.

Norėdami pakeisti žemėlapį: spustelėkite ant žalios mygtukų su juodo kryžiaus žemyn,; žalią mygtuką su brūkšneliu, jei norite nutolinti; arba žalių rodyklių gretimoms žemėlapius.


METAR-TAF: